createdAt,value
2023-01-23T00:01:31.663Z,4.69
2023-01-23T00:03:59.215Z,4.71
2023-01-23T00:06:27.179Z,4.67
2023-01-23T00:08:56.665Z,4.65
2023-01-23T00:11:30.181Z,4.85
2023-01-23T00:13:59.025Z,5.12
2023-01-23T00:16:28.931Z,5.11
2023-01-23T00:18:56.897Z,4.95
2023-01-23T00:21:26.851Z,4.84
2023-01-23T00:23:56.466Z,4.77
2023-01-23T00:26:26.781Z,5.00
2023-01-23T00:28:54.769Z,5.11
2023-01-23T00:31:28.560Z,5.23
2023-01-23T00:34:01.087Z,5.17
2023-01-23T00:36:46.862Z,5.13
2023-01-23T00:39:18.843Z,4.96
2023-01-23T00:41:47.946Z,4.96
2023-01-23T00:44:16.304Z,5.08
2023-01-23T00:46:44.093Z,4.96
2023-01-23T00:49:11.498Z,5.00
2023-01-23T00:51:38.898Z,5.04
2023-01-23T00:54:06.492Z,4.97
2023-01-23T00:56:33.840Z,4.92
2023-01-23T00:59:01.195Z,4.87
2023-01-23T01:01:31.414Z,4.98
2023-01-23T01:04:00.434Z,5.02
2023-01-23T01:06:29.802Z,4.94
2023-01-23T01:08:58.781Z,4.85
2023-01-23T01:11:26.437Z,4.91
2023-01-23T01:13:54.205Z,4.83
2023-01-23T01:16:21.645Z,5.07
2023-01-23T01:18:48.992Z,5.14
2023-01-23T01:21:17.142Z,5.17
2023-01-23T01:23:44.804Z,5.00
2023-01-23T01:26:12.845Z,4.93
2023-01-23T01:28:42.169Z,5.04
2023-01-23T01:31:15.211Z,5.13
2023-01-23T01:33:43.721Z,4.97
2023-01-23T01:36:16.943Z,4.85
2023-01-23T01:38:47.773Z,4.89
2023-01-23T01:41:16.296Z,5.04
2023-01-23T01:43:44.372Z,4.99
2023-01-23T01:46:19.560Z,4.92
2023-01-23T01:49:06.367Z,5.02
2023-01-23T01:51:52.510Z,5.04
2023-01-23T01:54:25.773Z,5.05
2023-01-23T01:57:09.432Z,4.96
2023-01-23T01:59:50.652Z,5.17
2023-01-23T02:02:23.861Z,5.08
2023-01-23T02:04:57.461Z,4.99
2023-01-23T02:07:47.242Z,4.91
2023-01-23T02:10:16.667Z,5.05
2023-01-23T02:12:49.161Z,5.06
2023-01-23T02:15:18.657Z,4.95
2023-01-23T02:17:48.168Z,5.05
2023-01-23T02:20:18.524Z,5.14
2023-01-23T02:23:14.509Z,5.07
2023-01-23T02:25:43.106Z,5.16
2023-01-23T02:28:13.198Z,5.20
2023-01-23T02:30:42.698Z,5.11
2023-01-23T02:33:19.486Z,5.13
2023-01-23T02:35:47.364Z,5.06
2023-01-23T02:38:18.137Z,5.02
2023-01-23T02:40:45.446Z,4.98
2023-01-23T02:43:21.434Z,5.11
2023-01-23T02:45:56.416Z,5.04
2023-01-23T02:48:24.972Z,5.04
2023-01-23T02:50:52.772Z,5.11
2023-01-23T02:53:20.117Z,5.05
2023-01-23T02:55:47.569Z,5.05
2023-01-23T02:58:33.653Z,5.11
2023-01-23T03:01:00.977Z,5.16
2023-01-23T03:03:30.651Z,5.15
2023-01-23T03:05:59.240Z,5.18
2023-01-23T03:08:33.460Z,5.39
2023-01-23T03:11:01.823Z,5.39
2023-01-23T03:13:29.859Z,5.42
2023-01-23T03:15:57.837Z,5.42
2023-01-23T03:18:30.910Z,5.51
2023-01-23T03:21:02.630Z,5.46
2023-01-23T03:23:30.280Z,5.39
2023-01-23T03:26:00.642Z,5.55
2023-01-23T03:29:08.603Z,5.56
2023-01-23T03:31:36.206Z,5.68
2023-01-23T03:34:03.711Z,5.70
2023-01-23T03:36:37.335Z,5.79
2023-01-23T03:39:27.374Z,5.82
2023-01-23T03:41:55.375Z,5.83
2023-01-23T03:44:24.695Z,5.82
2023-01-23T03:46:52.699Z,5.78
2023-01-23T03:49:20.783Z,5.82
2023-01-23T03:51:57.115Z,5.95
2023-01-23T03:54:24.527Z,6.01
2023-01-23T03:56:53.013Z,5.98
2023-01-23T03:59:46.362Z,5.91
2023-01-23T04:02:14.535Z,5.77
2023-01-23T04:04:41.853Z,5.72
2023-01-23T04:07:09.349Z,5.82
2023-01-23T04:09:38.920Z,5.86
2023-01-23T04:12:07.403Z,5.83
2023-01-23T04:14:38.775Z,5.72
2023-01-23T04:17:07.805Z,5.76
2023-01-23T04:19:35.730Z,5.74
2023-01-23T04:22:03.458Z,5.79
2023-01-23T04:24:35.677Z,5.82
2023-01-23T04:27:03.050Z,5.88
2023-01-23T04:29:30.422Z,5.79
2023-01-23T04:31:58.217Z,5.72
2023-01-23T04:34:25.630Z,5.82
2023-01-23T04:36:54.489Z,5.78
2023-01-23T04:39:21.772Z,5.77
2023-01-23T04:42:21.755Z,5.82
2023-01-23T04:44:58.068Z,5.84
2023-01-23T04:47:34.450Z,5.82
2023-01-23T04:50:05.329Z,5.81
2023-01-23T04:52:35.028Z,5.89
2023-01-23T04:55:03.983Z,5.95
2023-01-23T04:57:31.717Z,5.84
2023-01-23T05:00:10.745Z,5.94
2023-01-23T05:02:38.159Z,5.97
2023-01-23T05:05:06.655Z,6.02
2023-01-23T05:07:33.954Z,6.28
2023-01-23T05:10:10.894Z,6.55
2023-01-23T05:12:40.419Z,6.43
2023-01-23T05:15:10.014Z,6.16
2023-01-23T05:17:40.106Z,6.24
2023-01-23T05:20:08.437Z,6.16
2023-01-23T05:22:38.646Z,6.12
2023-01-23T05:25:06.540Z,6.14
2023-01-23T05:27:34.078Z,6.11
2023-01-23T05:30:01.442Z,5.99
2023-01-23T05:32:33.163Z,5.94
2023-01-23T05:35:09.957Z,6.01
2023-01-23T05:37:39.150Z,6.00
2023-01-23T05:40:13.911Z,5.87
2023-01-23T05:43:17.254Z,5.87
2023-01-23T05:46:06.776Z,5.75
2023-01-23T05:48:44.043Z,5.80
2023-01-23T05:51:12.264Z,5.82
2023-01-23T05:53:39.742Z,5.88
2023-01-23T05:56:08.091Z,5.81
2023-01-23T05:58:43.146Z,5.80
2023-01-23T06:01:37.158Z,5.86
2023-01-23T06:04:27.700Z,5.91
2023-01-23T06:07:27.176Z,5.87
2023-01-23T06:09:58.030Z,5.87
2023-01-23T06:12:25.681Z,5.79
2023-01-23T06:14:52.991Z,5.78
2023-01-23T06:17:20.501Z,5.80
2023-01-23T06:19:48.955Z,5.60
2023-01-23T06:22:16.874Z,5.73
2023-01-23T06:24:59.225Z,5.63
2023-01-23T06:27:26.775Z,5.71
2023-01-23T06:29:54.246Z,5.78
2023-01-23T06:32:23.565Z,5.77
2023-01-23T06:34:51.917Z,5.79
2023-01-23T06:37:19.341Z,5.73
2023-01-23T06:39:47.045Z,5.66
2023-01-23T06:42:16.238Z,5.68
2023-01-23T06:44:47.358Z,5.69
2023-01-23T06:47:16.685Z,5.73
2023-01-23T06:49:45.825Z,5.67
2023-01-23T06:52:13.243Z,5.70
2023-01-23T06:54:42.884Z,5.70
2023-01-23T06:57:10.678Z,5.53
2023-01-23T06:59:38.018Z,5.51
2023-01-23T07:02:11.042Z,5.62
2023-01-23T07:04:47.090Z,5.73
2023-01-23T07:07:14.467Z,5.72
2023-01-23T07:09:42.571Z,5.80
2023-01-23T07:12:15.605Z,5.78
2023-01-23T07:14:43.032Z,5.79
2023-01-23T07:17:12.379Z,5.81
2023-01-23T07:19:40.665Z,5.82
2023-01-23T07:22:11.864Z,5.83
2023-01-23T07:24:40.003Z,5.87
2023-01-23T07:27:07.291Z,5.86
2023-01-23T07:29:34.582Z,5.84
2023-01-23T07:32:02.163Z,5.92
2023-01-23T07:34:29.419Z,5.95
2023-01-23T07:36:56.791Z,5.95
2023-01-23T07:39:24.793Z,5.99
2023-01-23T07:41:52.174Z,5.97
2023-01-23T07:44:21.690Z,6.02
2023-01-23T07:46:49.311Z,6.06
2023-01-23T07:49:16.730Z,6.01
2023-01-23T07:51:43.999Z,6.06
2023-01-23T07:54:11.381Z,6.10
2023-01-23T07:56:38.875Z,6.08
2023-01-23T07:59:06.185Z,5.94
2023-01-23T08:01:33.477Z,5.91
2023-01-23T08:04:00.961Z,5.81
2023-01-23T08:06:28.305Z,5.85
2023-01-23T08:08:55.593Z,5.92
2023-01-23T08:11:24.049Z,5.98
2023-01-23T08:13:51.463Z,5.99
2023-01-23T08:16:18.920Z,6.02
2023-01-23T08:18:46.388Z,6.08
2023-01-23T08:21:13.780Z,6.03
2023-01-23T08:23:41.516Z,6.15
2023-01-23T08:26:11.461Z,6.07
2023-01-23T08:28:38.939Z,6.13
2023-01-23T08:31:08.550Z,6.12
2023-01-23T08:33:37.262Z,6.12
2023-01-23T08:36:06.365Z,6.15
2023-01-23T08:38:33.759Z,6.17
2023-01-23T08:41:03.015Z,6.19
2023-01-23T08:43:31.181Z,6.25
2023-01-23T08:45:59.748Z,6.23
2023-01-23T08:48:27.891Z,6.23
2023-01-23T08:51:00.796Z,6.25
2023-01-23T08:53:28.636Z,6.22
2023-01-23T08:56:03.855Z,6.29
2023-01-23T08:58:31.497Z,6.26
2023-01-23T09:00:59.124Z,6.41
2023-01-23T09:03:32.382Z,6.33
2023-01-23T09:06:02.594Z,6.21
2023-01-23T09:08:29.935Z,6.15
2023-01-23T09:11:06.133Z,6.15
2023-01-23T09:13:34.496Z,6.12
2023-01-23T09:16:02.179Z,6.01
2023-01-23T09:18:29.834Z,6.03
2023-01-23T09:20:57.498Z,6.09
2023-01-23T09:23:26.275Z,6.02
2023-01-23T09:25:53.622Z,5.98
2023-01-23T09:28:20.910Z,5.97
2023-01-23T09:30:48.426Z,5.91
2023-01-23T09:33:17.014Z,5.97
2023-01-23T09:35:45.537Z,6.00
2023-01-23T09:38:12.858Z,5.97
2023-01-23T09:40:50.572Z,6.02
2023-01-23T09:43:27.026Z,6.02
2023-01-23T09:46:05.734Z,6.13
2023-01-23T09:48:52.291Z,6.12
2023-01-23T09:51:26.841Z,6.11
2023-01-23T09:54:00.766Z,6.14
2023-01-23T09:56:33.628Z,6.09
2023-01-23T09:59:19.551Z,6.21
2023-01-23T10:01:46.974Z,6.15
2023-01-23T10:04:18.143Z,6.19
2023-01-23T10:07:07.484Z,6.30
2023-01-23T10:09:44.422Z,6.27
2023-01-23T10:12:24.342Z,6.25
2023-01-23T10:14:51.590Z,6.17
2023-01-23T10:17:36.913Z,6.18
2023-01-23T10:20:23.752Z,6.15
2023-01-23T10:23:24.962Z,6.07
2023-01-23T10:25:53.184Z,6.04
2023-01-23T10:28:35.177Z,6.04
2023-01-23T10:31:20.063Z,6.07
2023-01-23T10:34:07.329Z,6.01
2023-01-23T10:37:05.948Z,6.03
2023-01-23T10:39:47.619Z,5.99
2023-01-23T10:45:23.691Z,6.05
2023-01-23T10:47:55.147Z,6.02
2023-01-23T10:50:36.580Z,6.12
2023-01-23T10:53:16.138Z,6.07
2023-01-23T10:55:45.782Z,6.01
2023-01-23T10:58:32.054Z,6.07
2023-01-23T11:01:00.513Z,6.08
2023-01-23T11:03:33.863Z,6.03
2023-01-23T11:06:04.997Z,6.11
2023-01-23T11:08:37.599Z,6.12
2023-01-23T11:11:16.826Z,6.12
2023-01-23T11:13:47.520Z,6.19
2023-01-23T11:16:17.664Z,6.30
2023-01-23T11:18:54.245Z,6.36
2023-01-23T11:21:36.097Z,6.38
2023-01-23T11:24:27.741Z,6.37
2023-01-23T11:27:16.970Z,6.30
2023-01-23T11:29:56.359Z,6.35
2023-01-23T11:32:24.810Z,6.31
2023-01-23T11:35:03.410Z,6.24
2023-01-23T11:37:36.394Z,6.19
2023-01-23T11:40:07.188Z,6.21
2023-01-23T11:42:39.454Z,6.14
2023-01-23T11:45:35.688Z,6.05
2023-01-23T11:48:41.919Z,6.02
2023-01-23T11:51:21.404Z,6.16
2023-01-23T11:54:01.279Z,6.22
2023-01-23T11:56:56.012Z,6.45
2023-01-23T11:59:46.501Z,6.68
2023-01-23T12:02:30.713Z,6.94
2023-01-23T12:05:19.381Z,7.04
2023-01-23T12:08:25.745Z,7.05
2023-01-23T12:11:13.869Z,7.20
2023-01-23T12:14:19.627Z,7.27
2023-01-23T12:17:19.584Z,7.21
2023-01-23T12:20:02.078Z,7.40
2023-01-23T12:22:29.364Z,7.37
2023-01-23T12:25:26.001Z,7.41
2023-01-23T12:28:36.969Z,7.46
2023-01-23T12:31:34.833Z,7.50
2023-01-23T12:34:39.228Z,7.67
2023-01-23T12:37:30.301Z,7.68
2023-01-23T12:40:10.792Z,7.74
2023-01-23T12:43:04.767Z,7.82
2023-01-23T12:45:33.168Z,7.78
2023-01-23T12:48:19.626Z,7.84
2023-01-23T12:51:02.275Z,7.84
2023-01-23T12:53:34.405Z,7.89
2023-01-23T12:56:14.363Z,8.06
2023-01-23T12:58:48.790Z,8.09
2023-01-23T13:01:42.547Z,8.23
2023-01-23T13:04:42.041Z,8.36
2023-01-23T13:07:48.701Z,8.39
2023-01-23T13:10:51.618Z,8.54
2023-01-23T13:13:20.417Z,8.62
2023-01-23T13:16:10.805Z,8.71
2023-01-23T13:18:57.883Z,8.83
2023-01-23T13:21:58.152Z,8.91
2023-01-23T13:24:43.694Z,8.87
2023-01-23T13:27:40.409Z,8.92
2023-01-23T13:30:23.311Z,8.96
2023-01-23T13:32:52.532Z,8.88
2023-01-23T13:35:49.163Z,8.86
2023-01-23T13:38:22.703Z,8.87
2023-01-23T13:41:04.914Z,8.94
2023-01-23T13:44:04.511Z,8.82
2023-01-23T14:27:51.400Z,8.96
2023-01-23T14:30:27.406Z,9.11
2023-01-23T14:32:55.459Z,9.03
2023-01-23T14:35:31.869Z,9.03
2023-01-23T14:38:06.584Z,9.02
2023-01-23T14:40:49.041Z,9.00
2023-01-23T14:43:26.881Z,8.99
2023-01-23T14:46:03.632Z,8.98
2023-01-23T14:48:37.069Z,8.93
2023-01-23T14:51:09.284Z,8.87
2023-01-23T14:53:40.592Z,8.93
2023-01-23T14:56:11.188Z,8.83
2023-01-23T14:58:39.356Z,8.85
2023-01-23T15:01:06.986Z,8.79
2023-01-23T15:03:43.720Z,8.79
2023-01-23T15:06:19.555Z,8.77
2023-01-23T15:08:47.266Z,8.70
2023-01-23T15:11:15.073Z,8.69
2023-01-23T15:14:02.312Z,8.76
2023-01-23T15:16:36.090Z,8.68
2023-01-23T15:19:21.862Z,8.60
2023-01-23T15:21:49.857Z,8.60
2023-01-23T15:24:21.502Z,8.58
2023-01-23T15:27:03.657Z,8.59
2023-01-23T15:29:32.287Z,8.55
2023-01-23T15:32:01.020Z,8.56
2023-01-23T15:34:32.741Z,8.57
2023-01-23T15:37:00.057Z,8.64
2023-01-23T15:39:48.256Z,8.70
2023-01-23T15:42:15.492Z,8.60
2023-01-23T15:44:43.393Z,8.59
2023-01-23T15:47:10.985Z,8.55
2023-01-23T15:49:39.772Z,8.50
2023-01-23T15:52:27.014Z,8.46
2023-01-23T15:55:01.623Z,8.46
2023-01-23T15:57:29.131Z,8.47
2023-01-23T15:59:56.514Z,8.45
2023-01-23T16:02:31.204Z,8.44
2023-01-23T16:05:01.193Z,8.44
2023-01-23T16:07:37.128Z,8.42
2023-01-23T16:10:15.557Z,8.42
2023-01-23T16:12:42.843Z,8.48
2023-01-23T16:15:16.609Z,8.50
2023-01-23T16:17:44.500Z,8.57
2023-01-23T16:20:15.760Z,8.55
2023-01-23T16:22:44.701Z,8.52
2023-01-23T16:25:42.011Z,8.53
2023-01-23T16:28:15.375Z,8.50
2023-01-23T16:30:43.480Z,8.49
2023-01-23T16:33:10.847Z,8.52
2023-01-23T16:35:38.806Z,8.57
2023-01-23T16:38:06.622Z,8.63
2023-01-23T16:40:34.539Z,8.66
2023-01-23T16:43:04.991Z,8.59
2023-01-23T16:45:32.769Z,8.59
2023-01-23T16:48:00.731Z,8.57
2023-01-23T16:50:35.459Z,8.69
2023-01-23T16:53:08.165Z,8.68
2023-01-23T16:55:40.795Z,8.55
2023-01-23T16:58:20.007Z,8.57
2023-01-23T17:00:47.974Z,8.60
2023-01-23T17:03:24.739Z,8.55
2023-01-23T17:05:52.079Z,8.57
2023-01-23T17:08:21.833Z,8.59
2023-01-23T17:10:55.567Z,8.64
2023-01-23T17:13:23.521Z,8.64
2023-01-23T17:15:54.846Z,8.63
2023-01-23T17:18:25.563Z,8.62
2023-01-23T17:20:56.500Z,8.65
2023-01-23T17:23:24.575Z,8.68
2023-01-23T17:26:00.416Z,8.68
2023-01-23T17:28:29.159Z,8.69
2023-01-23T17:31:00.530Z,8.69
2023-01-23T17:33:31.697Z,8.68
2023-01-23T17:36:03.323Z,8.58
2023-01-23T17:38:36.876Z,8.50
2023-01-23T17:41:06.468Z,8.18
2023-01-23T17:43:33.764Z,8.12
2023-01-23T17:46:01.156Z,8.19
2023-01-23T17:48:31.621Z,8.19
2023-01-23T17:50:59.395Z,8.13
2023-01-23T17:53:27.912Z,8.09
2023-01-23T17:55:55.347Z,8.04
2023-01-23T17:58:23.525Z,8.07
2023-01-23T18:00:53.415Z,8.12
2023-01-23T18:03:21.988Z,8.20
2023-01-23T18:05:49.276Z,8.22
2023-01-23T18:08:19.320Z,8.25
2023-01-23T18:10:49.055Z,8.38
2023-01-23T18:13:25.257Z,8.43
2023-01-23T18:16:20.226Z,8.42
2023-01-23T18:18:58.773Z,8.45
2023-01-23T18:21:27.108Z,8.42
2023-01-23T18:23:54.908Z,8.56
2023-01-23T18:26:46.905Z,8.64
2023-01-23T18:29:52.033Z,8.58
2023-01-23T18:32:25.342Z,8.53
2023-01-23T18:34:58.537Z,8.50
2023-01-23T18:37:43.706Z,8.53
2023-01-23T18:40:36.361Z,8.67
2023-01-23T18:43:03.822Z,8.46
2023-01-23T18:45:31.992Z,8.32
2023-01-23T18:47:59.869Z,8.38
2023-01-23T18:50:27.628Z,8.53
2023-01-23T18:53:24.453Z,8.60
2023-01-23T18:56:14.212Z,8.59
2023-01-23T18:59:19.189Z,8.50
2023-01-23T19:02:09.655Z,8.56
2023-01-23T19:04:45.731Z,8.41
2023-01-23T19:07:18.627Z,8.04
2023-01-23T19:09:48.338Z,7.87
2023-01-23T19:12:25.613Z,7.74
2023-01-23T19:15:04.977Z,7.63
2023-01-23T19:17:36.831Z,7.54
2023-01-23T19:20:51.873Z,7.49
2023-01-23T19:23:37.189Z,7.60
2023-01-23T19:26:05.466Z,7.81
2023-01-23T19:28:32.912Z,7.92
2023-01-23T19:31:00.571Z,7.97
2023-01-23T19:33:28.109Z,8.12
2023-01-23T19:35:56.677Z,8.10
2023-01-23T19:38:24.014Z,8.17
2023-01-23T19:40:51.410Z,8.21
2023-01-23T19:43:28.836Z,8.16
2023-01-23T19:45:56.201Z,8.18
2023-01-23T19:48:23.647Z,8.22
2023-01-23T19:50:51.016Z,8.27
2023-01-23T19:53:19.336Z,8.31
2023-01-23T19:55:46.748Z,8.43
2023-01-23T19:58:14.131Z,8.46
2023-01-23T20:00:41.732Z,8.57
2023-01-23T20:03:14.555Z,8.58
2023-01-23T20:05:41.957Z,8.68
2023-01-23T20:08:10.201Z,8.78
2023-01-23T20:10:37.669Z,8.82
2023-01-23T20:13:05.370Z,8.78
2023-01-23T20:15:33.950Z,8.79
2023-01-23T20:18:01.348Z,8.80
2023-01-23T20:20:28.762Z,8.82
2023-01-23T20:23:14.712Z,8.84
2023-01-23T20:25:42.168Z,8.74
2023-01-23T20:28:11.213Z,8.63
2023-01-23T20:30:39.257Z,8.45
2023-01-23T20:33:07.929Z,8.44
2023-01-23T20:35:38.485Z,8.38
2023-01-23T20:38:05.911Z,8.28
2023-01-23T20:40:33.360Z,8.28
2023-01-23T20:43:00.933Z,8.34
2023-01-23T20:45:28.449Z,8.35
2023-01-23T20:47:58.494Z,8.34
2023-01-23T20:50:26.796Z,8.26
2023-01-23T20:53:12.469Z,8.24
2023-01-23T20:55:40.262Z,8.16
2023-01-23T20:58:26.299Z,8.09
2023-01-23T21:00:53.660Z,8.12
2023-01-23T21:03:21.153Z,8.17
2023-01-23T21:05:48.488Z,8.19
2023-01-23T21:08:15.953Z,8.18
2023-01-23T21:10:43.353Z,8.16
2023-01-23T21:13:12.191Z,8.25
2023-01-23T21:15:39.516Z,8.22
2023-01-23T21:18:06.863Z,8.23
2023-01-23T21:20:34.462Z,8.38
2023-01-23T21:23:01.763Z,8.40
2023-01-23T21:25:29.060Z,8.40
2023-01-23T21:27:56.330Z,8.43
2023-01-23T21:30:23.656Z,8.35
2023-01-23T21:32:51.299Z,8.37
2023-01-23T21:35:19.158Z,8.36
2023-01-23T21:37:46.841Z,8.27
2023-01-23T21:40:14.257Z,8.22
2023-01-23T21:42:41.628Z,8.01
2023-01-23T21:45:09.261Z,7.82
2023-01-23T21:47:36.577Z,7.68
2023-01-23T21:50:04.198Z,7.59
2023-01-23T21:52:31.890Z,7.56
2023-01-23T21:54:59.197Z,7.59
2023-01-23T21:57:26.656Z,7.61
2023-01-23T22:00:13.871Z,7.61
2023-01-23T22:02:41.269Z,7.47
2023-01-23T22:05:08.861Z,7.39
2023-01-23T22:07:36.224Z,7.50
2023-01-23T22:10:03.777Z,7.58
2023-01-23T22:12:31.132Z,7.60
2023-01-23T22:14:58.448Z,7.53
2023-01-23T22:17:25.825Z,7.51
2023-01-23T22:19:53.199Z,7.54
2023-01-23T22:22:20.818Z,7.59
2023-01-23T22:24:48.107Z,7.62
2023-01-23T22:27:15.682Z,7.68
2023-01-23T22:29:43.670Z,7.67
2023-01-23T22:32:11.082Z,7.71
2023-01-23T22:34:38.434Z,7.76
2023-01-23T22:37:05.788Z,7.72
2023-01-23T22:39:33.263Z,7.75
2023-01-23T22:42:02.726Z,7.73
2023-01-23T22:44:30.395Z,7.72
2023-01-23T22:46:57.765Z,7.77
2023-01-23T22:49:25.121Z,7.77
2023-01-23T22:51:52.500Z,7.76
2023-01-23T22:54:19.847Z,7.73
2023-01-23T22:56:47.213Z,7.77
2023-01-23T22:59:14.496Z,7.79
2023-01-23T23:01:41.859Z,7.62
2023-01-23T23:04:09.550Z,7.61
2023-01-23T23:06:37.000Z,7.50
2023-01-23T23:09:05.356Z,7.50
2023-01-23T23:11:32.915Z,7.46
2023-01-23T23:14:00.262Z,7.58
2023-01-23T23:16:31.630Z,7.62
2023-01-23T23:19:01.750Z,7.57
2023-01-23T23:21:33.069Z,7.53
2023-01-23T23:24:01.030Z,7.48
2023-01-23T23:26:31.301Z,7.47
2023-01-23T23:29:00.483Z,7.47
2023-01-23T23:31:28.419Z,7.52
2023-01-23T23:33:55.868Z,7.46
2023-01-23T23:36:23.323Z,7.57
2023-01-23T23:38:50.650Z,7.58
2023-01-23T23:41:19.032Z,7.61
2023-01-23T23:43:47.591Z,7.57
2023-01-23T23:46:17.977Z,7.62
2023-01-23T23:48:47.915Z,7.72
2023-01-23T23:51:17.273Z,7.87
2023-01-23T23:53:46.213Z,7.91
2023-01-23T23:56:27.627Z,7.87
2023-01-23T23:58:56.310Z,7.94
